createdAt,value
2023-09-17T00:01:22.088Z,20.98
2023-09-17T00:03:49.640Z,21.01
2023-09-17T00:06:16.845Z,20.97
2023-09-17T00:08:43.776Z,20.97
2023-09-17T00:11:11.132Z,21.00
2023-09-17T00:13:39.625Z,21.03
2023-09-17T00:16:07.044Z,21.01
2023-09-17T00:18:35.487Z,20.90
2023-09-17T00:21:02.373Z,20.90
2023-09-17T00:23:29.351Z,20.88
2023-09-17T00:25:56.388Z,20.85
2023-09-17T00:28:23.715Z,20.84
2023-09-17T00:30:50.827Z,20.76
2023-09-17T00:33:17.757Z,20.69
2023-09-17T00:35:46.238Z,20.69
2023-09-17T00:38:13.118Z,20.67
2023-09-17T00:40:41.451Z,20.57
2023-09-17T00:43:09.641Z,20.56
2023-09-17T00:45:36.895Z,20.56
2023-09-17T00:48:05.068Z,20.58
2023-09-17T00:50:32.497Z,20.58
2023-09-17T00:53:01.781Z,20.60
2023-09-17T00:55:30.992Z,20.65
2023-09-17T00:58:00.185Z,20.71
2023-09-17T01:00:27.978Z,20.68
2023-09-17T01:02:56.098Z,20.66
2023-09-17T01:05:23.768Z,20.70
2023-09-17T01:07:51.201Z,20.67
2023-09-17T01:10:22.761Z,20.55
2023-09-17T01:12:49.836Z,20.68
2023-09-17T01:15:17.011Z,20.72
2023-09-17T01:17:44.030Z,20.66
2023-09-17T01:20:27.006Z,20.70
2023-09-17T01:23:00.347Z,20.67
2023-09-17T01:25:41.972Z,20.63
2023-09-17T01:28:13.504Z,20.67
2023-09-17T01:30:43.777Z,20.45
2023-09-17T01:33:11.113Z,20.26
2023-09-17T01:35:49.150Z,20.53
2023-09-17T01:38:19.933Z,20.61
2023-09-17T01:40:49.763Z,20.62
2023-09-17T01:43:19.511Z,20.63
2023-09-17T01:45:47.610Z,20.65
2023-09-17T01:48:16.645Z,20.57
2023-09-17T01:50:43.839Z,20.59
2023-09-17T01:53:13.061Z,20.57
2023-09-17T01:55:42.986Z,20.51
2023-09-17T01:58:12.668Z,20.48
2023-09-17T02:00:41.046Z,20.52
2023-09-17T02:03:09.516Z,20.47
2023-09-17T02:05:36.702Z,20.44
2023-09-17T02:08:05.057Z,20.32
2023-09-17T02:10:32.372Z,20.28
2023-09-17T02:12:59.565Z,20.28
2023-09-17T02:15:26.844Z,20.31
2023-09-17T02:17:55.140Z,20.26
2023-09-17T02:20:22.202Z,20.27
2023-09-17T02:22:51.061Z,20.25
2023-09-17T02:25:18.896Z,20.13
2023-09-17T02:27:47.590Z,20.16
2023-09-17T02:30:14.609Z,20.18
2023-09-17T02:32:42.940Z,20.13
2023-09-17T02:35:11.282Z,20.09
2023-09-17T02:37:39.564Z,20.05
2023-09-17T02:40:10.255Z,20.02
2023-09-17T02:42:38.242Z,19.95
2023-09-17T02:45:07.227Z,19.91
2023-09-17T02:47:37.142Z,19.94
2023-09-17T02:50:06.132Z,19.95
2023-09-17T02:52:35.594Z,19.98
2023-09-17T02:55:05.853Z,19.99
2023-09-17T02:57:32.968Z,20.10
2023-09-17T03:00:00.968Z,20.16
2023-09-17T03:02:29.560Z,20.19
2023-09-17T03:04:59.626Z,20.16
2023-09-17T03:07:27.645Z,20.15
2023-09-17T03:10:01.299Z,19.96
2023-09-17T03:12:29.592Z,19.98
2023-09-17T03:14:56.698Z,19.98
2023-09-17T03:17:23.845Z,19.93
2023-09-17T03:19:52.614Z,19.94
2023-09-17T03:22:19.582Z,19.86
2023-09-17T03:24:58.017Z,19.92
2023-09-17T03:27:33.742Z,19.81
2023-09-17T03:30:00.756Z,19.85
2023-09-17T03:32:28.491Z,19.80
2023-09-17T03:34:56.999Z,19.71
2023-09-17T03:37:24.021Z,19.43
2023-09-17T03:40:15.620Z,19.55
2023-09-17T03:42:47.598Z,19.48
2023-09-17T03:45:15.170Z,19.47
2023-09-17T03:47:43.792Z,19.48
2023-09-17T03:50:16.314Z,19.47
2023-09-17T03:52:48.829Z,19.43
2023-09-17T03:55:16.778Z,19.37
2023-09-17T03:57:46.057Z,19.39
2023-09-17T04:00:16.977Z,19.32
2023-09-17T04:02:46.456Z,19.28
2023-09-17T04:05:15.306Z,19.18
2023-09-17T04:07:45.445Z,19.02
2023-09-17T04:10:13.425Z,18.66
2023-09-17T04:12:41.969Z,18.51
2023-09-17T04:15:21.384Z,18.49
2023-09-17T04:17:51.420Z,18.62
2023-09-17T04:20:20.122Z,18.64
2023-09-17T04:22:51.136Z,18.61
2023-09-17T04:25:19.971Z,18.65
2023-09-17T04:27:49.759Z,18.78
2023-09-17T04:30:21.208Z,18.80
2023-09-17T04:32:49.586Z,18.66
2023-09-17T04:35:18.581Z,18.60
2023-09-17T04:37:48.630Z,18.47
2023-09-17T04:40:15.941Z,18.43
2023-09-17T04:42:45.080Z,18.30
2023-09-17T04:45:31.685Z,18.16
2023-09-17T04:48:00.198Z,18.31
2023-09-17T04:50:28.716Z,18.44
2023-09-17T04:52:56.699Z,18.53
2023-09-17T04:55:24.422Z,18.57
2023-09-17T04:57:52.566Z,18.65
2023-09-17T05:00:21.420Z,18.71
2023-09-17T05:02:49.392Z,18.81
2023-09-17T05:05:21.063Z,18.85
2023-09-17T05:07:50.007Z,18.89
2023-09-17T05:10:18.069Z,18.91
2023-09-17T05:12:45.740Z,18.98
2023-09-17T05:15:13.392Z,19.02
2023-09-17T05:17:41.223Z,19.07
2023-09-17T05:20:09.964Z,19.10
2023-09-17T05:22:38.361Z,19.07
2023-09-17T05:25:09.433Z,18.96
2023-09-17T05:27:36.926Z,19.09
2023-09-17T05:30:05.142Z,19.22
2023-09-17T05:32:32.423Z,19.25
2023-09-17T05:35:01.076Z,19.34
2023-09-17T05:37:28.282Z,19.44
2023-09-17T05:39:56.741Z,19.48
2023-09-17T05:42:23.686Z,19.45
2023-09-17T05:44:50.621Z,19.46
2023-09-17T05:47:19.019Z,19.37
2023-09-17T05:49:46.046Z,19.26
2023-09-17T05:52:13.274Z,19.12
2023-09-17T05:54:40.598Z,19.18
2023-09-17T05:57:08.982Z,19.20
2023-09-17T05:59:36.438Z,19.31
2023-09-17T06:02:03.897Z,19.50
2023-09-17T06:04:31.085Z,19.75
2023-09-17T06:06:58.230Z,19.93
2023-09-17T06:09:25.146Z,20.11
2023-09-17T06:11:52.444Z,20.27
2023-09-17T06:14:20.909Z,20.44
2023-09-17T06:16:57.530Z,20.53
2023-09-17T06:19:27.095Z,20.60
2023-09-17T06:21:55.216Z,20.96
2023-09-17T06:24:22.464Z,21.24
2023-09-17T06:26:49.579Z,21.52
2023-09-17T06:29:17.161Z,21.65
2023-09-17T06:31:46.913Z,21.78
2023-09-17T06:34:14.190Z,22.00
2023-09-17T06:36:41.166Z,22.09
2023-09-17T06:39:08.839Z,22.13
2023-09-17T06:41:38.064Z,22.18
2023-09-17T06:44:07.024Z,22.41
2023-09-17T06:46:34.458Z,22.60
2023-09-17T06:49:03.084Z,22.68
2023-09-17T06:51:29.962Z,22.83
2023-09-17T06:53:57.144Z,22.91
2023-09-17T06:56:26.858Z,22.90
2023-09-17T06:58:53.787Z,23.27
2023-09-17T07:01:20.815Z,23.63
2023-09-17T07:03:51.434Z,24.12
2023-09-17T07:06:20.173Z,24.48
2023-09-17T07:08:47.778Z,24.81
2023-09-17T07:11:14.904Z,25.14
2023-09-17T07:13:41.935Z,25.48
2023-09-17T07:16:09.229Z,25.57
2023-09-17T07:18:36.258Z,25.68
2023-09-17T07:21:05.349Z,25.93
2023-09-17T07:23:33.979Z,25.98
2023-09-17T07:26:01.698Z,24.81
2023-09-17T07:28:30.441Z,24.76
2023-09-17T07:30:58.458Z,25.55
2023-09-17T07:33:25.782Z,25.25
2023-09-17T07:35:53.876Z,24.92
2023-09-17T07:38:20.924Z,24.18
2023-09-17T07:40:49.544Z,24.91
2023-09-17T07:43:16.672Z,24.86
2023-09-17T07:45:43.793Z,24.58
2023-09-17T07:48:10.944Z,24.69
2023-09-17T07:50:37.833Z,25.17
2023-09-17T07:53:05.381Z,25.80
2023-09-17T07:55:32.494Z,25.89
2023-09-17T07:58:00.874Z,25.68
2023-09-17T08:00:28.139Z,25.34
2023-09-17T08:02:55.151Z,25.92
2023-09-17T08:05:22.250Z,26.02
2023-09-17T08:07:49.762Z,26.25
2023-09-17T08:10:16.817Z,26.22
2023-09-17T08:12:43.744Z,25.91
2023-09-17T08:15:12.374Z,26.29
2023-09-17T08:17:39.341Z,26.36
2023-09-17T08:20:10.944Z,26.59
2023-09-17T08:22:38.926Z,25.96
2023-09-17T08:25:07.679Z,26.57
2023-09-17T08:27:34.576Z,26.22
2023-09-17T08:30:08.060Z,26.51
2023-09-17T08:32:36.347Z,26.20
2023-09-17T08:35:04.280Z,25.99
2023-09-17T08:37:31.319Z,26.65
2023-09-17T08:39:58.331Z,27.13
2023-09-17T08:42:27.739Z,27.12
2023-09-17T08:44:58.160Z,26.83
2023-09-17T08:47:25.366Z,26.79
2023-09-17T08:49:53.703Z,26.69
2023-09-17T08:52:22.032Z,26.59
2023-09-17T08:54:50.734Z,26.60
2023-09-17T08:57:22.946Z,26.53
2023-09-17T08:59:58.501Z,26.48
2023-09-17T09:02:30.609Z,26.70
2023-09-17T09:05:01.456Z,25.81
2023-09-17T09:07:29.765Z,26.25
2023-09-17T09:09:58.096Z,26.07
2023-09-17T09:12:25.723Z,26.27
2023-09-17T09:14:54.674Z,26.48
2023-09-17T09:17:21.672Z,25.88
2023-09-17T09:19:48.980Z,25.91
2023-09-17T09:22:17.274Z,26.26
2023-09-17T09:24:47.590Z,26.22
2023-09-17T09:27:15.311Z,26.33
2023-09-17T09:29:45.340Z,26.30
2023-09-17T09:32:13.210Z,26.26
2023-09-17T09:34:42.167Z,26.30
2023-09-17T09:37:10.078Z,26.12
2023-09-17T09:39:39.392Z,26.30
2023-09-17T09:42:07.631Z,26.61
2023-09-17T09:44:36.235Z,27.05
2023-09-17T09:47:03.947Z,26.81
2023-09-17T09:49:40.368Z,26.60
2023-09-17T09:52:07.339Z,27.28
2023-09-17T09:54:34.279Z,27.26
2023-09-17T09:57:03.176Z,27.29
2023-09-17T09:59:30.662Z,27.60
2023-09-17T10:01:57.852Z,27.22
2023-09-17T10:04:25.036Z,26.91
2023-09-17T10:06:52.232Z,26.81
2023-09-17T10:09:19.728Z,26.81
2023-09-17T10:11:47.649Z,26.80
2023-09-17T10:14:16.157Z,27.10
2023-09-17T10:16:44.632Z,27.09
2023-09-17T10:19:19.192Z,26.94
2023-09-17T10:21:47.903Z,27.02
2023-09-17T10:24:16.738Z,26.96
2023-09-17T10:26:44.824Z,27.22
2023-09-17T10:29:13.258Z,27.40
2023-09-17T10:31:43.563Z,27.33
2023-09-17T10:34:14.176Z,27.58
2023-09-17T10:36:43.518Z,27.43
2023-09-17T10:39:11.981Z,27.65
2023-09-17T10:41:39.501Z,27.68
2023-09-17T10:44:08.493Z,27.52
2023-09-17T10:46:37.821Z,27.71
2023-09-17T10:49:08.625Z,27.47
2023-09-17T10:51:37.010Z,27.53
2023-09-17T10:54:05.186Z,27.76
2023-09-17T10:56:33.195Z,27.69
2023-09-17T10:59:01.045Z,27.87
2023-09-17T11:01:31.134Z,28.24
2023-09-17T11:04:03.944Z,28.71
2023-09-17T11:06:35.990Z,28.94
2023-09-17T11:09:05.916Z,28.55
2023-09-17T11:11:35.980Z,28.92
2023-09-17T11:14:06.774Z,28.88
2023-09-17T11:16:37.295Z,28.73
2023-09-17T11:19:06.802Z,28.74
2023-09-17T11:21:39.315Z,29.15
2023-09-17T11:24:11.139Z,29.59
2023-09-17T11:26:40.279Z,29.56
2023-09-17T11:29:08.664Z,29.39
2023-09-17T11:31:37.331Z,29.42
2023-09-17T11:34:11.636Z,29.30
2023-09-17T11:36:39.974Z,29.12
2023-09-17T11:39:08.428Z,29.46
2023-09-17T11:41:41.706Z,29.98
2023-09-17T11:44:10.134Z,29.80
2023-09-17T11:46:38.554Z,29.80
2023-09-17T11:49:09.393Z,29.59
2023-09-17T11:51:46.476Z,29.45
2023-09-17T11:54:17.755Z,29.35
2023-09-17T11:56:47.916Z,29.68
2023-09-17T11:59:18.030Z,29.41
2023-09-17T12:01:48.582Z,29.92
2023-09-17T12:04:20.902Z,30.07
2023-09-17T12:06:50.396Z,29.90
2023-09-17T12:09:22.712Z,29.71
2023-09-17T12:11:51.551Z,29.66
2023-09-17T12:14:20.674Z,30.04
2023-09-17T12:16:49.428Z,30.39
2023-09-17T12:19:18.779Z,30.19
2023-09-17T12:21:49.063Z,29.39
2023-09-17T12:24:27.362Z,28.80
2023-09-17T12:27:20.633Z,29.09
2023-09-17T12:29:52.867Z,30.31
2023-09-17T12:32:23.178Z,30.27
2023-09-17T12:34:51.636Z,30.38
2023-09-17T12:37:18.627Z,30.30
2023-09-17T12:39:51.112Z,29.77
2023-09-17T12:42:18.637Z,29.95
2023-09-17T12:44:45.728Z,29.70
2023-09-17T12:47:13.299Z,30.06
2023-09-17T12:49:41.703Z,30.28
2023-09-17T12:52:08.923Z,30.44
2023-09-17T12:54:36.289Z,29.97
2023-09-17T12:57:05.641Z,30.02
2023-09-17T12:59:33.907Z,29.59
2023-09-17T13:02:04.750Z,29.59
2023-09-17T13:04:36.392Z,30.15
2023-09-17T13:07:05.304Z,29.86
2023-09-17T13:09:33.134Z,29.38
2023-09-17T13:12:02.231Z,30.02
2023-09-17T13:14:32.601Z,29.80
2023-09-17T13:17:00.124Z,30.19
2023-09-17T13:19:27.442Z,29.78
2023-09-17T13:21:54.850Z,29.79
2023-09-17T13:24:22.013Z,29.99
2023-09-17T13:26:48.988Z,29.56
2023-09-17T13:29:16.032Z,29.57
2023-09-17T13:31:51.256Z,29.76
2023-09-17T13:34:20.866Z,30.17
2023-09-17T13:36:48.586Z,29.85
2023-09-17T13:39:15.830Z,29.84
2023-09-17T13:41:44.036Z,29.66
2023-09-17T13:44:11.261Z,29.89
2023-09-17T13:46:45.816Z,29.81
2023-09-17T13:49:14.379Z,29.67
2023-09-17T13:51:41.370Z,30.17
2023-09-17T13:54:08.295Z,29.44
2023-09-17T13:56:36.788Z,29.53
2023-09-17T13:59:04.192Z,29.73
2023-09-17T14:01:32.046Z,29.51
2023-09-17T14:03:59.020Z,29.63
2023-09-17T14:06:27.269Z,29.73
2023-09-17T14:08:54.450Z,30.11
2023-09-17T14:11:25.338Z,29.63
2023-09-17T14:13:52.361Z,29.77
2023-09-17T14:16:21.324Z,29.90
2023-09-17T14:18:51.397Z,29.93
2023-09-17T14:21:20.476Z,29.52
2023-09-17T14:23:48.723Z,29.28
2023-09-17T14:26:15.775Z,29.48
2023-09-17T14:28:42.946Z,29.44
2023-09-17T14:31:09.904Z,29.18
2023-09-17T14:33:36.899Z,29.10
2023-09-17T14:36:04.340Z,29.11
2023-09-17T14:38:31.282Z,29.25
2023-09-17T14:40:59.721Z,29.18
2023-09-17T14:43:26.759Z,29.61
2023-09-17T14:45:53.754Z,29.50
2023-09-17T14:48:20.738Z,29.30
2023-09-17T14:50:50.222Z,29.19
2023-09-17T14:53:17.259Z,29.27
2023-09-17T14:55:47.546Z,29.23
2023-09-17T14:58:18.076Z,29.65
2023-09-17T15:00:45.402Z,29.56
2023-09-17T15:03:13.066Z,29.76
2023-09-17T15:05:40.824Z,29.97
2023-09-17T15:08:07.816Z,29.60
2023-09-17T15:10:34.817Z,29.90
2023-09-17T15:13:01.727Z,30.08
2023-09-17T15:15:31.009Z,29.94
2023-09-17T15:17:59.430Z,29.59
2023-09-17T15:20:26.833Z,29.25
2023-09-17T15:22:53.741Z,29.22
2023-09-17T15:25:20.742Z,29.17
2023-09-17T15:27:47.929Z,29.21
2023-09-17T15:30:15.032Z,29.23
2023-09-17T15:32:43.540Z,29.17
2023-09-17T15:35:18.063Z,29.19
2023-09-17T15:37:47.699Z,29.32
2023-09-17T15:40:15.216Z,29.09
2023-09-17T15:42:45.196Z,28.84
2023-09-17T15:45:12.210Z,28.83
2023-09-17T15:47:41.542Z,28.88
2023-09-17T15:50:12.761Z,28.71
2023-09-17T15:52:40.009Z,28.84
2023-09-17T15:55:07.753Z,28.99
2023-09-17T15:57:34.946Z,29.01
2023-09-17T16:00:01.927Z,28.88
2023-09-17T16:02:39.315Z,28.97
2023-09-17T16:05:06.884Z,29.11
2023-09-17T16:07:35.641Z,28.86
2023-09-17T16:10:02.613Z,28.83
2023-09-17T16:12:29.556Z,28.98
2023-09-17T16:14:56.516Z,29.01
2023-09-17T16:17:23.509Z,29.22
2023-09-17T16:19:58.461Z,28.85
2023-09-17T16:22:26.160Z,28.82
2023-09-17T16:24:54.792Z,29.13
2023-09-17T16:27:22.103Z,29.34
2023-09-17T16:29:49.131Z,29.25
2023-09-17T16:32:16.644Z,29.17
2023-09-17T16:34:43.907Z,29.17
2023-09-17T16:37:10.895Z,29.33
2023-09-17T16:39:38.349Z,29.35
2023-09-17T16:42:06.913Z,29.32
2023-09-17T16:44:33.876Z,29.45
2023-09-17T16:47:01.538Z,29.49
2023-09-17T16:49:28.507Z,29.35
2023-09-17T16:51:55.468Z,29.23
2023-09-17T16:54:22.506Z,29.17
2023-09-17T16:56:49.872Z,29.28
2023-09-17T16:59:18.403Z,29.09
2023-09-17T17:01:46.255Z,29.11
2023-09-17T17:04:14.088Z,29.09
2023-09-17T17:06:41.220Z,29.07
2023-09-17T17:09:09.287Z,29.01
2023-09-17T17:11:36.449Z,28.85
2023-09-17T17:14:03.494Z,28.77
2023-09-17T17:16:32.913Z,28.51
2023-09-17T17:19:00.042Z,28.29
2023-09-17T17:21:26.964Z,28.21
2023-09-17T17:23:54.135Z,28.25
2023-09-17T17:26:21.838Z,28.23
2023-09-17T17:28:48.964Z,28.10
2023-09-17T17:31:16.004Z,27.95
2023-09-17T17:33:45.444Z,27.84
2023-09-17T17:36:12.417Z,27.72
2023-09-17T17:38:39.328Z,27.45
2023-09-17T17:41:08.164Z,27.51
2023-09-17T17:43:38.109Z,27.49
2023-09-17T17:46:05.286Z,27.24
2023-09-17T17:48:33.052Z,27.05
2023-09-17T17:51:01.423Z,26.79
2023-09-17T17:53:28.400Z,26.60
2023-09-17T17:55:55.598Z,26.46
2023-09-17T17:58:22.504Z,26.34
2023-09-17T18:00:50.289Z,26.19
2023-09-17T18:03:18.284Z,26.04
2023-09-17T18:05:45.410Z,25.87
2023-09-17T18:08:14.081Z,25.64
2023-09-17T18:10:41.143Z,25.39
2023-09-17T18:13:08.070Z,25.22
2023-09-17T18:15:36.920Z,25.22
2023-09-17T18:18:04.083Z,25.04
2023-09-17T18:20:31.694Z,24.69
2023-09-17T18:22:58.775Z,24.73
2023-09-17T18:25:27.281Z,24.54
2023-09-17T18:27:54.330Z,24.47
2023-09-17T18:30:21.230Z,24.61
2023-09-17T18:32:48.384Z,24.69
2023-09-17T18:35:15.341Z,24.78
2023-09-17T18:37:42.784Z,24.37
2023-09-17T18:40:10.526Z,24.24
2023-09-17T18:42:38.883Z,24.26
2023-09-17T18:45:09.670Z,24.38
2023-09-17T18:47:38.153Z,23.92
2023-09-17T18:50:06.876Z,23.81
2023-09-17T18:52:33.981Z,23.88
2023-09-17T18:55:02.478Z,24.07
2023-09-17T18:57:29.528Z,24.01
2023-09-17T18:59:58.004Z,23.96
2023-09-17T19:02:25.170Z,23.91
2023-09-17T19:04:52.271Z,23.75
2023-09-17T19:07:19.315Z,23.72
2023-09-17T19:09:46.229Z,23.67
2023-09-17T19:12:13.250Z,23.58
2023-09-17T19:14:41.387Z,23.56
2023-09-17T19:17:09.881Z,23.51
2023-09-17T19:19:36.816Z,23.51
2023-09-17T19:22:10.388Z,23.38
2023-09-17T19:24:38.256Z,23.40
2023-09-17T19:27:06.068Z,23.42
2023-09-17T19:29:33.123Z,23.61
2023-09-17T19:32:00.212Z,23.48
2023-09-17T19:34:28.760Z,23.20
2023-09-17T19:36:56.934Z,22.96
2023-09-17T19:39:23.851Z,22.93
2023-09-17T19:41:50.815Z,23.07
2023-09-17T19:44:19.682Z,23.17
2023-09-17T19:46:47.975Z,23.12
2023-09-17T19:49:14.911Z,22.81
2023-09-17T19:51:43.196Z,22.93
2023-09-17T19:54:11.157Z,23.02
2023-09-17T19:56:38.436Z,23.27
2023-09-17T19:59:06.172Z,23.39
2023-09-17T20:01:33.186Z,23.36
2023-09-17T20:04:00.986Z,23.41
2023-09-17T20:06:43.609Z,23.19
2023-09-17T20:09:22.662Z,23.06
2023-09-17T20:11:49.638Z,22.63
2023-09-17T20:14:19.050Z,22.74
2023-09-17T20:16:46.124Z,22.83
2023-09-17T20:19:13.143Z,22.92
2023-09-17T20:21:40.219Z,23.11
2023-09-17T20:24:07.820Z,23.09
2023-09-17T20:26:39.128Z,22.61
2023-09-17T20:29:06.030Z,22.32
2023-09-17T20:31:33.167Z,22.50
2023-09-17T20:34:00.916Z,22.80
2023-09-17T20:36:28.112Z,22.94
2023-09-17T20:38:55.314Z,23.04
2023-09-17T20:41:24.162Z,22.94
2023-09-17T20:43:53.262Z,22.82
2023-09-17T20:46:20.168Z,22.61
2023-09-17T20:48:47.400Z,22.67
2023-09-17T20:51:14.324Z,22.70
2023-09-17T20:53:41.223Z,22.40
2023-09-17T20:56:08.237Z,22.68
2023-09-17T20:58:36.312Z,22.76
2023-09-17T21:01:05.258Z,22.71
2023-09-17T21:03:32.683Z,22.78
2023-09-17T21:05:59.774Z,22.93
2023-09-17T21:08:26.840Z,22.95
2023-09-17T21:10:54.036Z,22.91
2023-09-17T21:13:21.024Z,22.85
2023-09-17T21:15:48.240Z,22.73
2023-09-17T21:18:16.819Z,22.84
2023-09-17T21:20:43.815Z,22.92
2023-09-17T21:23:10.915Z,22.91
2023-09-17T21:25:38.222Z,22.86
2023-09-17T21:28:06.569Z,22.69
2023-09-17T21:30:34.328Z,22.71
2023-09-17T21:33:01.370Z,22.59
2023-09-17T21:35:30.318Z,22.32
2023-09-17T21:37:57.349Z,22.27
2023-09-17T21:40:24.286Z,22.18
2023-09-17T21:42:51.262Z,21.98
2023-09-17T21:45:19.875Z,21.89
2023-09-17T21:47:47.076Z,22.02
2023-09-17T21:50:14.106Z,22.10
2023-09-17T21:52:42.621Z,22.07
2023-09-17T21:55:09.919Z,22.03
2023-09-17T21:57:36.975Z,21.96
2023-09-17T22:00:04.692Z,22.10
2023-09-17T22:02:31.657Z,21.96
2023-09-17T22:04:58.816Z,21.95
2023-09-17T22:07:25.717Z,22.01
2023-09-17T22:09:54.180Z,22.03
2023-09-17T22:12:21.254Z,21.95
2023-09-17T22:14:48.360Z,21.81
2023-09-17T22:17:17.685Z,21.72
2023-09-17T22:19:51.842Z,21.59
2023-09-17T22:22:18.923Z,21.65
2023-09-17T22:24:45.918Z,21.75
2023-09-17T22:27:15.955Z,21.62
2023-09-17T22:29:43.160Z,21.66
2023-09-17T22:32:10.216Z,21.66
2023-09-17T22:34:37.251Z,21.71
2023-09-17T22:37:04.409Z,21.75
2023-09-17T22:39:31.311Z,21.79
2023-09-17T22:41:58.410Z,21.81
2023-09-17T22:44:26.783Z,21.95
2023-09-17T22:46:53.695Z,22.02
2023-09-17T22:49:20.762Z,22.01
2023-09-17T22:51:47.782Z,22.13
2023-09-17T22:54:14.696Z,22.17
2023-09-17T22:56:41.605Z,22.10
2023-09-17T22:59:10.106Z,21.94
2023-09-17T23:01:42.005Z,21.73
2023-09-17T23:04:09.110Z,21.62
2023-09-17T23:06:36.552Z,21.13
2023-09-17T23:09:05.085Z,20.92
2023-09-17T23:11:32.859Z,20.67
2023-09-17T23:14:00.355Z,20.66
2023-09-17T23:16:27.590Z,20.90
2023-09-17T23:18:56.875Z,21.11
2023-09-17T23:21:23.941Z,21.22
2023-09-17T23:23:54.248Z,21.20
2023-09-17T23:26:24.850Z,21.25
2023-09-17T23:28:52.239Z,21.31
2023-09-17T23:31:19.493Z,21.34
2023-09-17T23:33:46.501Z,21.38
2023-09-17T23:36:14.837Z,21.45
2023-09-17T23:38:41.783Z,21.42
2023-09-17T23:41:09.729Z,21.38
2023-09-17T23:43:38.853Z,21.51
2023-09-17T23:46:05.991Z,21.71
2023-09-17T23:48:32.930Z,21.76
2023-09-17T23:51:01.017Z,21.90
2023-09-17T23:53:29.513Z,22.35
2023-09-17T23:55:57.063Z,22.68
2023-09-17T23:58:24.041Z,22.81
